sensor_id;sensor_type;location;lat;lon;timestamp;P1;durP1;ratioP1;P2;durP2;ratioP2
3101;SDS011;1561;42.666;23.392;2024-03-23T00:54:17;10.57;;;6.20;;
3101;SDS011;1561;42.666;23.392;2024-03-23T00:56:59;11.77;;;6.20;;
3101;SDS011;1561;42.666;23.392;2024-03-23T00:59:46;9.30;;;6.17;;
3101;SDS011;1561;42.666;23.392;2024-03-23T01:02:20;10.60;;;6.60;;
3101;SDS011;1561;42.666;23.392;2024-03-23T01:04:49;7.73;;;6.10;;
3101;SDS011;1561;42.666;23.392;2024-03-23T01:10:04;7.73;;;6.00;;
3101;SDS011;1561;42.666;23.392;2024-03-23T01:12:40;15.80;;;6.60;;
3101;SDS011;1561;42.666;23.392;2024-03-23T01:15:13;12.23;;;5.63;;
3101;SDS011;1561;42.666;23.392;2024-03-23T01:17:43;9.00;;;6.40;;
3101;SDS011;1561;42.666;23.392;2024-03-23T01:20:19;6.53;;;5.63;;
3101;SDS011;1561;42.666;23.392;2024-03-23T01:23:07;9.40;;;6.20;;
3101;SDS011;1561;42.666;23.392;2024-03-23T01:25:34;10.30;;;6.27;;
3101;SDS011;1561;42.666;23.392;2024-03-23T01:28:23;9.10;;;6.27;;
3101;SDS011;1561;42.666;23.392;2024-03-23T01:30:55;10.03;;;6.20;;
3101;SDS011;1561;42.666;23.392;2024-03-23T01:33:41;12.50;;;6.50;;
3101;SDS011;1561;42.666;23.392;2024-03-23T01:36:10;10.10;;;5.80;;
3101;SDS011;1561;42.666;23.392;2024-03-23T01:38:53;8.77;;;6.80;;
3101;SDS011;1561;42.666;23.392;2024-03-23T01:41:28;8.63;;;5.13;;
3101;SDS011;1561;42.666;23.392;2024-03-23T01:44:09;9.97;;;5.93;;
3101;SDS011;1561;42.666;23.392;2024-03-23T01:46:54;12.63;;;6.70;;
3101;SDS011;1561;42.666;23.392;2024-03-23T01:49:32;8.00;;;5.60;;
3101;SDS011;1561;42.666;23.392;2024-03-23T01:52:47;8.40;;;5.37;;
3101;SDS011;1561;42.666;23.392;2024-03-23T01:55:33;9.77;;;6.87;;
3101;SDS011;1561;42.666;23.392;2024-03-23T01:58:04;10.07;;;6.53;;
3101;SDS011;1561;42.666;23.392;2024-03-23T02:00:41;12.00;;;6.20;;
3101;SDS011;1561;42.666;23.392;2024-03-23T02:03:34;10.90;;;6.47;;
3101;SDS011;1561;42.666;23.392;2024-03-23T02:06:33;9.33;;;6.10;;
3101;SDS011;1561;42.666;23.392;2024-03-23T02:09:03;9.47;;;5.80;;
3101;SDS011;1561;42.666;23.392;2024-03-23T02:14:23;14.17;;;6.80;;
3101;SDS011;1561;42.666;23.392;2024-03-23T02:16:54;15.57;;;5.90;;
3101;SDS011;1561;42.666;23.392;2024-03-23T02:19:21;8.90;;;6.73;;
3101;SDS011;1561;42.666;23.392;2024-03-23T02:22:01;10.73;;;7.00;;
3101;SDS011;1561;42.666;23.392;2024-03-23T02:24:55;8.77;;;6.03;;
3101;SDS011;1561;42.666;23.392;2024-03-23T02:27:40;9.53;;;5.90;;
3101;SDS011;1561;42.666;23.392;2024-03-23T02:30:17;9.70;;;6.27;;
3101;SDS011;1561;42.666;23.392;2024-03-23T02:32:56;12.90;;;6.77;;
3101;SDS011;1561;42.666;23.392;2024-03-23T02:35:33;12.23;;;7.77;;
3101;SDS011;1561;42.666;23.392;2024-03-23T02:38:26;12.03;;;7.80;;
3101;SDS011;1561;42.666;23.392;2024-03-23T02:41:28;11.97;;;7.43;;
3101;SDS011;1561;42.666;23.392;2024-03-23T02:43:57;10.37;;;7.30;;
3101;SDS011;1561;42.666;23.392;2024-03-23T02:46:43;12.73;;;7.47;;
3101;SDS011;1561;42.666;23.392;2024-03-23T02:49:36;8.93;;;6.93;;
3101;SDS011;1561;42.666;23.392;2024-03-23T02:52:30;8.90;;;6.87;;
3101;SDS011;1561;42.666;23.392;2024-03-23T02:54:58;8.47;;;6.03;;
3101;SDS011;1561;42.666;23.392;2024-03-23T02:57:48;8.80;;;5.77;;
3101;SDS011;1561;42.666;23.392;2024-03-23T03:00:21;12.33;;;5.77;;
3101;SDS011;1561;42.666;23.392;2024-03-23T03:03:08;9.40;;;6.10;;
3101;SDS011;1561;42.666;23.392;2024-03-23T03:05:45;9.37;;;6.63;;
3101;SDS011;1561;42.666;23.392;2024-03-23T03:08:11;10.13;;;6.67;;
3101;SDS011;1561;42.666;23.392;2024-03-23T03:11:00;7.97;;;5.83;;
3101;SDS011;1561;42.666;23.392;2024-03-23T03:13:35;10.13;;;6.30;;
3101;SDS011;1561;42.666;23.392;2024-03-23T03:16:23;11.83;;;7.00;;
3101;SDS011;1561;42.666;23.392;2024-03-23T03:18:52;9.57;;;6.47;;
3101;SDS011;1561;42.666;23.392;2024-03-23T03:21:23;7.87;;;5.47;;
3101;SDS011;1561;42.666;23.392;2024-03-23T03:24:11;8.77;;;6.33;;
3101;SDS011;1561;42.666;23.392;2024-03-23T03:26:52;9.67;;;6.90;;
3101;SDS011;1561;42.666;23.392;2024-03-23T03:29:30;12.10;;;5.83;;
3101;SDS011;1561;42.666;23.392;2024-03-23T03:32:05;10.73;;;6.17;;
3101;SDS011;1561;42.666;23.392;2024-03-23T03:34:36;7.20;;;5.17;;
3101;SDS011;1561;42.666;23.392;2024-03-23T03:37:18;9.43;;;6.13;;
3101;SDS011;1561;42.666;23.392;2024-03-23T03:39:59;8.63;;;5.83;;
3101;SDS011;1561;42.666;23.392;2024-03-23T03:42:27;9.27;;;5.93;;
3101;SDS011;1561;42.666;23.392;2024-03-23T03:45:01;11.10;;;6.00;;
3101;SDS011;1561;42.666;23.392;2024-03-23T03:47:49;9.93;;;7.00;;
3101;SDS011;1561;42.666;23.392;2024-03-23T03:50:29;10.17;;;6.63;;
3101;SDS011;1561;42.666;23.392;2024-03-23T03:53:27;7.47;;;5.60;;
3101;SDS011;1561;42.666;23.392;2024-03-23T03:56:00;11.03;;;6.50;;
3101;SDS011;1561;42.666;23.392;2024-03-23T03:58:36;10.67;;;7.43;;
3101;SDS011;1561;42.666;23.392;2024-03-23T04:01:23;13.30;;;7.43;;
3101;SDS011;1561;42.666;23.392;2024-03-23T04:04:09;10.90;;;6.60;;
3101;SDS011;1561;42.666;23.392;2024-03-23T04:06:41;8.20;;;6.00;;
3101;SDS011;1561;42.666;23.392;2024-03-23T04:09:15;11.57;;;6.43;;
3101;SDS011;1561;42.666;23.392;2024-03-23T04:12:01;9.40;;;6.43;;
3101;SDS011;1561;42.666;23.392;2024-03-23T04:14:37;10.07;;;6.00;;
3101;SDS011;1561;42.666;23.392;2024-03-23T04:19:58;11.30;;;6.27;;
3101;SDS011;1561;42.666;23.392;2024-03-23T04:22:25;9.53;;;6.83;;
3101;SDS011;1561;42.666;23.392;2024-03-23T04:25:06;14.33;;;7.10;;
3101;SDS011;1561;42.666;23.392;2024-03-23T04:28:01;7.80;;;6.73;;
3101;SDS011;1561;42.666;23.392;2024-03-23T04:30:30;9.60;;;7.00;;
3101;SDS011;1561;42.666;23.392;2024-03-23T04:33:12;11.60;;;7.63;;
3101;SDS011;1561;42.666;23.392;2024-03-23T04:35:38;12.03;;;7.73;;
3101;SDS011;1561;42.666;23.392;2024-03-23T04:38:08;10.17;;;7.40;;
3101;SDS011;1561;42.666;23.392;2024-03-23T04:40:39;13.40;;;8.67;;
3101;SDS011;1561;42.666;23.392;2024-03-23T04:43:23;19.50;;;11.63;;
3101;SDS011;1561;42.666;23.392;2024-03-23T04:46:00;21.10;;;13.17;;
3101;SDS011;1561;42.666;23.392;2024-03-23T04:48:34;24.73;;;13.83;;
3101;SDS011;1561;42.666;23.392;2024-03-23T04:51:04;22.37;;;13.77;;
3101;SDS011;1561;42.666;23.392;2024-03-23T04:53:38;24.20;;;13.20;;
3101;SDS011;1561;42.666;23.392;2024-03-23T04:56:10;21.80;;;14.40;;
3101;SDS011;1561;42.666;23.392;2024-03-23T04:58:45;21.77;;;15.53;;
3101;SDS011;1561;42.666;23.392;2024-03-23T05:01:32;25.80;;;17.40;;
3101;SDS011;1561;42.666;23.392;2024-03-23T05:04:14;27.40;;;16.53;;
3101;SDS011;1561;42.666;23.392;2024-03-23T05:06:40;26.90;;;17.27;;
3101;SDS011;1561;42.666;23.392;2024-03-23T05:09:20;25.63;;;16.30;;
3101;SDS011;1561;42.666;23.392;2024-03-23T05:11:51;25.37;;;15.87;;
3101;SDS011;1561;42.666;23.392;2024-03-23T05:14:18;28.33;;;17.50;;
3101;SDS011;1561;42.666;23.392;2024-03-23T05:16:48;27.20;;;16.40;;
3101;SDS011;1561;42.666;23.392;2024-03-23T05:19:26;30.90;;;17.00;;
3101;SDS011;1561;42.666;23.392;2024-03-23T05:21:55;26.87;;;17.77;;
3101;SDS011;1561;42.666;23.392;2024-03-23T05:24:25;25.33;;;17.10;;
3101;SDS011;1561;42.666;23.392;2024-03-23T05:27:07;27.50;;;17.03;;
3101;SDS011;1561;42.666;23.392;2024-03-23T05:29:34;23.60;;;17.03;;
3101;SDS011;1561;42.666;23.392;2024-03-23T05:32:01;22.07;;;17.00;;
3101;SDS011;1561;42.666;23.392;2024-03-23T05:34:36;23.80;;;16.20;;
3101;SDS011;1561;42.666;23.392;2024-03-23T05:37:10;22.80;;;14.87;;
3101;SDS011;1561;42.666;23.392;2024-03-23T05:39:40;28.40;;;15.80;;
3101;SDS011;1561;42.666;23.392;2024-03-23T05:42:07;26.07;;;15.60;;
3101;SDS011;1561;42.666;23.392;2024-03-23T05:44:39;25.20;;;15.10;;
3101;SDS011;1561;42.666;23.392;2024-03-23T05:47:10;20.40;;;14.57;;
3101;SDS011;1561;42.666;23.392;2024-03-23T05:49:47;20.03;;;14.47;;
3101;SDS011;1561;42.666;23.392;2024-03-23T05:52:15;21.20;;;14.60;;
3101;SDS011;1561;42.666;23.392;2024-03-23T05:54:46;23.07;;;15.23;;
3101;SDS011;1561;42.666;23.392;2024-03-23T05:57:15;20.00;;;13.20;;
3101;SDS011;1561;42.666;23.392;2024-03-23T05:59:52;19.00;;;14.10;;
3101;SDS011;1561;42.666;23.392;2024-03-23T06:02:20;18.60;;;13.40;;
3101;SDS011;1561;42.666;23.392;2024-03-23T06:04:54;22.90;;;14.40;;
3101;SDS011;1561;42.666;23.392;2024-03-23T06:07:43;15.70;;;11.57;;
3101;SDS011;1561;42.666;23.392;2024-03-23T06:10:12;17.97;;;13.47;;
3101;SDS011;1561;42.666;23.392;2024-03-23T06:12:48;18.07;;;13.20;;
3101;SDS011;1561;42.666;23.392;2024-03-23T06:15:26;17.20;;;14.00;;
3101;SDS011;1561;42.666;23.392;2024-03-23T06:17:58;19.20;;;13.87;;
3101;SDS011;1561;42.666;23.392;2024-03-23T06:20:34;17.60;;;13.13;;
3101;SDS011;1561;42.666;23.392;2024-03-23T06:23:01;15.20;;;12.60;;
3101;SDS011;1561;42.666;23.392;2024-03-23T06:25:31;23.07;;;14.50;;
3101;SDS011;1561;42.666;23.392;2024-03-23T06:27:59;19.93;;;13.87;;
3101;SDS011;1561;42.666;23.392;2024-03-23T06:30:29;19.00;;;13.43;;
3101;SDS011;1561;42.666;23.392;2024-03-23T06:32:57;17.10;;;13.00;;
3101;SDS011;1561;42.666;23.392;2024-03-23T06:35:26;17.37;;;12.73;;
3101;SDS011;1561;42.666;23.392;2024-03-23T06:37:57;19.73;;;12.63;;
3101;SDS011;1561;42.666;23.392;2024-03-23T06:40:48;17.63;;;13.70;;
3101;SDS011;1561;42.666;23.392;2024-03-23T06:43:26;18.07;;;13.70;;
3101;SDS011;1561;42.666;23.392;2024-03-23T06:45:55;16.77;;;13.67;;
3101;SDS011;1561;42.666;23.392;2024-03-23T06:48:46;16.30;;;13.27;;
3101;SDS011;1561;42.666;23.392;2024-03-23T06:51:16;20.43;;;15.10;;
3101;SDS011;1561;42.666;23.392;2024-03-23T06:53:45;25.23;;;13.77;;
3101;SDS011;1561;42.666;23.392;2024-03-23T06:56:21;18.80;;;13.40;;
3101;SDS011;1561;42.666;23.392;2024-03-23T06:58:48;16.97;;;13.60;;
3101;SDS011;1561;42.666;23.392;2024-03-23T07:01:16;21.97;;;14.80;;
3101;SDS011;1561;42.666;23.392;2024-03-23T07:03:44;18.20;;;14.10;;
3101;SDS011;1561;42.666;23.392;2024-03-23T07:06:13;17.40;;;13.77;;
3101;SDS011;1561;42.666;23.392;2024-03-23T07:08:41;15.53;;;13.13;;
3101;SDS011;1561;42.666;23.392;2024-03-23T07:11:18;18.00;;;14.10;;
3101;SDS011;1561;42.666;23.392;2024-03-23T07:13:49;24.37;;;17.00;;
3101;SDS011;1561;42.666;23.392;2024-03-23T07:19:17;19.37;;;13.50;;
3101;SDS011;1561;42.666;23.392;2024-03-23T07:22:01;17.50;;;13.70;;
3101;SDS011;1561;42.666;23.392;2024-03-23T07:24:31;15.80;;;13.60;;
3101;SDS011;1561;42.666;23.392;2024-03-23T07:27:11;17.52;;;13.95;;
3101;SDS011;1561;42.666;23.392;2024-03-23T07:29:40;17.75;;;12.82;;
3101;SDS011;1561;42.666;23.392;2024-03-23T07:32:06;15.07;;;12.25;;
3101;SDS011;1561;42.666;23.392;2024-03-23T07:34:35;15.52;;;13.50;;
3101;SDS011;1561;42.666;23.392;2024-03-23T07:37:04;14.88;;;12.68;;
3101;SDS011;1561;42.666;23.392;2024-03-23T07:39:33;14.10;;;12.60;;
3101;SDS011;1561;42.666;23.392;2024-03-23T07:42:01;20.27;;;13.20;;
3101;SDS011;1561;42.666;23.392;2024-03-23T07:44:28;20.23;;;16.10;;
3101;SDS011;1561;42.666;23.392;2024-03-23T07:46:55;19.25;;;14.70;;
3101;SDS011;1561;42.666;23.392;2024-03-23T07:49:21;21.30;;;15.80;;
3101;SDS011;1561;42.666;23.392;2024-03-23T07:51:49;14.48;;;12.98;;
3101;SDS011;1561;42.666;23.392;2024-03-23T07:54:16;17.20;;;15.05;;
3101;SDS011;1561;42.666;23.392;2024-03-23T07:56:48;17.95;;;13.75;;
3101;SDS011;1561;42.666;23.392;2024-03-23T07:59:14;17.67;;;13.80;;
3101;SDS011;1561;42.666;23.392;2024-03-23T08:01:41;15.40;;;13.68;;
3101;SDS011;1561;42.666;23.392;2024-03-23T08:04:08;19.73;;;12.82;;
3101;SDS011;1561;42.666;23.392;2024-03-23T08:06:37;15.48;;;12.20;;
3101;SDS011;1561;42.666;23.392;2024-03-23T08:09:04;17.23;;;11.63;;
3101;SDS011;1561;42.666;23.392;2024-03-23T08:11:40;14.82;;;11.52;;
3101;SDS011;1561;42.666;23.392;2024-03-23T08:14:27;14.97;;;11.23;;
3101;SDS011;1561;42.666;23.392;2024-03-23T08:16:54;14.35;;;11.35;;
3101;SDS011;1561;42.666;23.392;2024-03-23T08:19:40;13.43;;;11.63;;
3101;SDS011;1561;42.666;23.392;2024-03-23T08:22:08;14.23;;;11.60;;
3101;SDS011;1561;42.666;23.392;2024-03-23T08:24:35;16.85;;;11.63;;
3101;SDS011;1561;42.666;23.392;2024-03-23T08:27:02;16.75;;;11.50;;
3101;SDS011;1561;42.666;23.392;2024-03-23T08:29:32;13.73;;;11.13;;
3101;SDS011;1561;42.666;23.392;2024-03-23T08:32:04;18.15;;;11.60;;
3101;SDS011;1561;42.666;23.392;2024-03-23T08:34:30;16.15;;;12.75;;
3101;SDS011;1561;42.666;23.392;2024-03-23T08:36:59;22.15;;;12.27;;
3101;SDS011;1561;42.666;23.392;2024-03-23T08:39:31;19.15;;;11.45;;
3101;SDS011;1561;42.666;23.392;2024-03-23T08:41:59;14.05;;;12.00;;
3101;SDS011;1561;42.666;23.392;2024-03-23T08:44:25;14.05;;;12.00;;
3101;SDS011;1561;42.666;23.392;2024-03-23T08:47:02;12.77;;;11.48;;
3101;SDS011;1561;42.666;23.392;2024-03-23T08:49:28;15.40;;;12.15;;
3101;SDS011;1561;42.666;23.392;2024-03-23T08:51:55;13.73;;;12.00;;
3101;SDS011;1561;42.666;23.392;2024-03-23T08:54:21;14.27;;;10.73;;
3101;SDS011;1561;42.666;23.392;2024-03-23T08:56:49;15.38;;;10.50;;
3101;SDS011;1561;42.666;23.392;2024-03-23T08:59:17;16.00;;;11.13;;
3101;SDS011;1561;42.666;23.392;2024-03-23T09:01:45;15.23;;;11.70;;
3101;SDS011;1561;42.666;23.392;2024-03-23T09:04:14;14.30;;;11.88;;
3101;SDS011;1561;42.666;23.392;2024-03-23T09:06:42;15.85;;;10.80;;
3101;SDS011;1561;42.666;23.392;2024-03-23T09:09:08;12.77;;;10.90;;
3101;SDS011;1561;42.666;23.392;2024-03-23T09:11:37;13.85;;;11.73;;
3101;SDS011;1561;42.666;23.392;2024-03-23T09:14:03;17.02;;;11.27;;
3101;SDS011;1561;42.666;23.392;2024-03-23T09:16:32;46.00;;;32.17;;
3101;SDS011;1561;42.666;23.392;2024-03-23T09:18:58;14.75;;;13.15;;
3101;SDS011;1561;42.666;23.392;2024-03-23T09:21:31;17.58;;;14.90;;
3101;SDS011;1561;42.666;23.392;2024-03-23T09:24:02;13.43;;;11.63;;
3101;SDS011;1561;42.666;23.392;2024-03-23T09:26:34;14.27;;;11.63;;
3101;SDS011;1561;42.666;23.392;2024-03-23T09:28:59;12.90;;;9.85;;
3101;SDS011;1561;42.666;23.392;2024-03-23T09:31:29;11.10;;;9.98;;
3101;SDS011;1561;42.666;23.392;2024-03-23T09:33:56;15.63;;;11.02;;
3101;SDS011;1561;42.666;23.392;2024-03-23T09:36:24;11.95;;;10.68;;
3101;SDS011;1561;42.666;23.392;2024-03-23T09:38:51;11.40;;;10.30;;
3101;SDS011;1561;42.666;23.392;2024-03-23T09:41:19;13.20;;;11.20;;
3101;SDS011;1561;42.666;23.392;2024-03-23T09:43:46;13.65;;;11.75;;
3101;SDS011;1561;42.666;23.392;2024-03-23T09:46:16;13.48;;;10.23;;
3101;SDS011;1561;42.666;23.392;2024-03-23T09:48:45;10.38;;;9.25;;
3101;SDS011;1561;42.666;23.392;2024-03-23T09:51:13;11.10;;;9.90;;
3101;SDS011;1561;42.666;23.392;2024-03-23T09:53:39;13.05;;;9.93;;
3101;SDS011;1561;42.666;23.392;2024-03-23T09:56:10;12.57;;;10.80;;
3101;SDS011;1561;42.666;23.392;2024-03-23T09:58:36;10.90;;;9.90;;
3101;SDS011;1561;42.666;23.392;2024-03-23T10:01:04;12.15;;;9.40;;
3101;SDS011;1561;42.666;23.392;2024-03-23T10:03:31;10.80;;;9.25;;
3101;SDS011;1561;42.666;23.392;2024-03-23T10:06:02;10.02;;;8.90;;
3101;SDS011;1561;42.666;23.392;2024-03-23T10:08:34;9.90;;;9.00;;
3101;SDS011;1561;42.666;23.392;2024-03-23T10:11:12;12.38;;;9.82;;
3101;SDS011;1561;42.666;23.392;2024-03-23T10:13:44;21.70;;;16.58;;
3101;SDS011;1561;42.666;23.392;2024-03-23T10:16:21;10.23;;;9.18;;
3101;SDS011;1561;42.666;23.392;2024-03-23T10:18:49;11.23;;;10.13;;
3101;SDS011;1561;42.666;23.392;2024-03-23T10:21:18;13.82;;;10.52;;
3101;SDS011;1561;42.666;23.392;2024-03-23T10:23:44;19.38;;;14.80;;
3101;SDS011;1561;42.666;23.392;2024-03-23T10:28:57;11.95;;;10.57;;
3101;SDS011;1561;42.666;23.392;2024-03-23T10:31:26;12.30;;;11.10;;
3101;SDS011;1561;42.666;23.392;2024-03-23T10:33:53;58.13;;;47.42;;
3101;SDS011;1561;42.666;23.392;2024-03-23T10:36:22;31.77;;;27.38;;
3101;SDS011;1561;42.666;23.392;2024-03-23T10:38:51;11.88;;;10.65;;
3101;SDS011;1561;42.666;23.392;2024-03-23T10:41:24;38.78;;;33.38;;
3101;SDS011;1561;42.666;23.392;2024-03-23T10:44:01;12.15;;;10.45;;
3101;SDS011;1561;42.666;23.392;2024-03-23T10:46:34;12.10;;;10.90;;
3101;SDS011;1561;42.666;23.392;2024-03-23T10:49:06;19.02;;;13.75;;
3101;SDS011;1561;42.666;23.392;2024-03-23T10:51:33;18.63;;;14.65;;
3101;SDS011;1561;42.666;23.392;2024-03-23T10:54:02;17.13;;;14.00;;
3101;SDS011;1561;42.666;23.392;2024-03-23T10:56:38;19.90;;;14.75;;
3101;SDS011;1561;42.666;23.392;2024-03-23T10:59:07;15.30;;;13.35;;
3101;SDS011;1561;42.666;23.392;2024-03-23T11:01:36;17.98;;;13.10;;
3101;SDS011;1561;42.666;23.392;2024-03-23T11:04:29;16.92;;;13.27;;
3101;SDS011;1561;42.666;23.392;2024-03-23T11:06:58;14.35;;;11.77;;
3101;SDS011;1561;42.666;23.392;2024-03-23T11:09:38;16.27;;;11.50;;
3101;SDS011;1561;42.666;23.392;2024-03-23T11:12:30;13.45;;;11.30;;
3101;SDS011;1561;42.666;23.392;2024-03-23T11:15:04;11.98;;;10.68;;
3101;SDS011;1561;42.666;23.392;2024-03-23T11:17:38;15.38;;;13.55;;
3101;SDS011;1561;42.666;23.392;2024-03-23T11:20:05;12.55;;;11.32;;
3101;SDS011;1561;42.666;23.392;2024-03-23T11:22:46;15.52;;;11.20;;
3101;SDS011;1561;42.666;23.392;2024-03-23T11:25:18;11.07;;;9.90;;
3101;SDS011;1561;42.666;23.392;2024-03-23T11:27:48;12.25;;;9.10;;
3101;SDS011;1561;42.666;23.392;2024-03-23T11:30:22;10.98;;;8.70;;
3101;SDS011;1561;42.666;23.392;2024-03-23T11:33:00;14.32;;;9.82;;
3101;SDS011;1561;42.666;23.392;2024-03-23T11:35:37;9.60;;;8.70;;
3101;SDS011;1561;42.666;23.392;2024-03-23T11:38:09;9.73;;;8.75;;
3101;SDS011;1561;42.666;23.392;2024-03-23T11:40:40;11.68;;;9.32;;
3101;SDS011;1561;42.666;23.392;2024-03-23T11:43:12;11.10;;;9.52;;
3101;SDS011;1561;42.666;23.392;2024-03-23T11:45:42;14.43;;;9.73;;
3101;SDS011;1561;42.666;23.392;2024-03-23T11:48:13;14.68;;;10.02;;
3101;SDS011;1561;42.666;23.392;2024-03-23T11:50:43;10.35;;;9.23;;
3101;SDS011;1561;42.666;23.392;2024-03-23T11:53:26;12.60;;;9.88;;
3101;SDS011;1561;42.666;23.392;2024-03-23T11:55:53;13.32;;;10.68;;
3101;SDS011;1561;42.666;23.392;2024-03-23T11:58:23;11.15;;;9.93;;
3101;SDS011;1561;42.666;23.392;2024-03-23T12:00:52;12.15;;;9.90;;
3101;SDS011;1561;42.666;23.392;2024-03-23T12:03:35;16.35;;;10.98;;
3101;SDS011;1561;42.666;23.392;2024-03-23T12:06:09;9.88;;;8.93;;
3101;SDS011;1561;42.666;23.392;2024-03-23T12:08:48;10.55;;;9.45;;
3101;SDS011;1561;42.666;23.392;2024-03-23T12:11:20;12.93;;;10.25;;
3101;SDS011;1561;42.666;23.392;2024-03-23T12:13:56;10.85;;;9.73;;
3101;SDS011;1561;42.666;23.392;2024-03-23T12:16:28;12.30;;;10.45;;
3101;SDS011;1561;42.666;23.392;2024-03-23T12:18:58;14.60;;;10.05;;
3101;SDS011;1561;42.666;23.392;2024-03-23T12:21:32;12.15;;;9.98;;
3101;SDS011;1561;42.666;23.392;2024-03-23T12:24:02;9.93;;;8.77;;
3101;SDS011;1561;42.666;23.392;2024-03-23T12:26:36;11.05;;;9.70;;
3101;SDS011;1561;42.666;23.392;2024-03-23T12:29:16;10.25;;;9.23;;
3101;SDS011;1561;42.666;23.392;2024-03-23T12:31:50;12.38;;;9.65;;
3101;SDS011;1561;42.666;23.392;2024-03-23T12:34:20;10.52;;;9.45;;
3101;SDS011;1561;42.666;23.392;2024-03-23T12:37:03;11.30;;;9.25;;
3101;SDS011;1561;42.666;23.392;2024-03-23T12:39:33;9.85;;;8.68;;
3101;SDS011;1561;42.666;23.392;2024-03-23T12:42:01;13.02;;;9.20;;
3101;SDS011;1561;42.666;23.392;2024-03-23T12:44:29;11.10;;;9.27;;
3101;SDS011;1561;42.666;23.392;2024-03-23T12:46:59;11.27;;;9.77;;
3101;SDS011;1561;42.666;23.392;2024-03-23T12:49:36;18.73;;;11.57;;
3101;SDS011;1561;42.666;23.392;2024-03-23T12:52:05;13.50;;;8.65;;
3101;SDS011;1561;42.666;23.392;2024-03-23T12:54:38;10.55;;;8.40;;
3101;SDS011;1561;42.666;23.392;2024-03-23T12:57:10;8.45;;;7.55;;
3101;SDS011;1561;42.666;23.392;2024-03-23T12:59:36;8.30;;;7.50;;
3101;SDS011;1561;42.666;23.392;2024-03-23T13:02:06;9.57;;;8.60;;
3101;SDS011;1561;42.666;23.392;2024-03-23T13:04:36;9.52;;;8.13;;
3101;SDS011;1561;42.666;23.392;2024-03-23T13:07:06;9.15;;;8.25;;
3101;SDS011;1561;42.666;23.392;2024-03-23T13:09:35;10.05;;;8.18;;
3101;SDS011;1561;42.666;23.392;2024-03-23T13:12:04;7.97;;;6.57;;
3101;SDS011;1561;42.666;23.392;2024-03-23T13:14:35;9.65;;;8.07;;
3101;SDS011;1561;42.666;23.392;2024-03-23T13:17:03;9.35;;;6.85;;
3101;SDS011;1561;42.666;23.392;2024-03-23T13:19:37;6.88;;;6.18;;
3101;SDS011;1561;42.666;23.392;2024-03-23T13:22:06;9.05;;;6.10;;
3101;SDS011;1561;42.666;23.392;2024-03-23T13:24:35;11.63;;;7.13;;
3101;SDS011;1561;42.666;23.392;2024-03-23T13:27:10;8.52;;;5.90;;
3101;SDS011;1561;42.666;23.392;2024-03-23T13:29:36;10.10;;;5.70;;
3101;SDS011;1561;42.666;23.392;2024-03-23T13:32:07;8.40;;;5.78;;
3101;SDS011;1561;42.666;23.392;2024-03-23T13:34:36;6.35;;;5.68;;
3101;SDS011;1561;42.666;23.392;2024-03-23T13:37:06;6.10;;;5.43;;
3101;SDS011;1561;42.666;23.392;2024-03-23T13:39:36;5.97;;;5.47;;
3101;SDS011;1561;42.666;23.392;2024-03-23T13:42:03;8.52;;;7.55;;
3101;SDS011;1561;42.666;23.392;2024-03-23T13:44:34;6.80;;;6.20;;
3101;SDS011;1561;42.666;23.392;2024-03-23T13:47:03;7.28;;;6.22;;
3101;SDS011;1561;42.666;23.392;2024-03-23T13:49:30;10.15;;;6.88;;
3101;SDS011;1561;42.666;23.392;2024-03-23T13:52:06;9.30;;;6.80;;
3101;SDS011;1561;42.666;23.392;2024-03-23T13:54:33;8.80;;;6.70;;
3101;SDS011;1561;42.666;23.392;2024-03-23T13:57:04;6.80;;;5.32;;
3101;SDS011;1561;42.666;23.392;2024-03-23T13:59:32;7.10;;;6.20;;
3101;SDS011;1561;42.666;23.392;2024-03-23T14:02:07;7.07;;;6.00;;
3101;SDS011;1561;42.666;23.392;2024-03-23T14:04:34;6.35;;;5.70;;
3101;SDS011;1561;42.666;23.392;2024-03-23T14:07:05;6.70;;;5.88;;
3101;SDS011;1561;42.666;23.392;2024-03-23T14:09:34;6.10;;;4.93;;
3101;SDS011;1561;42.666;23.392;2024-03-23T14:12:04;4.72;;;4.32;;
3101;SDS011;1561;42.666;23.392;2024-03-23T14:14:34;7.18;;;4.57;;
3101;SDS011;1561;42.666;23.392;2024-03-23T14:17:02;5.43;;;4.80;;
3101;SDS011;1561;42.666;23.392;2024-03-23T14:19:28;5.03;;;4.18;;
3101;SDS011;1561;42.666;23.392;2024-03-23T14:21:59;4.30;;;3.63;;
3101;SDS011;1561;42.666;23.392;2024-03-23T14:24:30;5.57;;;4.97;;
3101;SDS011;1561;42.666;23.392;2024-03-23T14:27:02;20.13;;;11.93;;
3101;SDS011;1561;42.666;23.392;2024-03-23T14:29:30;24.40;;;12.93;;
3101;SDS011;1561;42.666;23.392;2024-03-23T14:32:13;3.88;;;3.55;;
3101;SDS011;1561;42.666;23.392;2024-03-23T14:34:42;3.90;;;3.60;;
3101;SDS011;1561;42.666;23.392;2024-03-23T14:37:09;3.50;;;3.20;;
3101;SDS011;1561;42.666;23.392;2024-03-23T14:39:46;3.65;;;3.40;;
3101;SDS011;1561;42.666;23.392;2024-03-23T14:42:26;3.97;;;3.55;;
3101;SDS011;1561;42.666;23.392;2024-03-23T14:44:54;4.72;;;3.30;;
3101;SDS011;1561;42.666;23.392;2024-03-23T14:47:20;6.95;;;4.00;;
3101;SDS011;1561;42.666;23.392;2024-03-23T14:49:51;4.38;;;3.55;;
3101;SDS011;1561;42.666;23.392;2024-03-23T14:52:20;5.75;;;3.97;;
3101;SDS011;1561;42.666;23.392;2024-03-23T14:54:51;6.18;;;3.40;;
3101;SDS011;1561;42.666;23.392;2024-03-23T14:57:22;2.95;;;2.30;;
3101;SDS011;1561;42.666;23.392;2024-03-23T14:59:56;2.42;;;2.28;;
3101;SDS011;1561;42.666;23.392;2024-03-23T15:02:30;2.95;;;2.47;;
3101;SDS011;1561;42.666;23.392;2024-03-23T15:05:00;2.80;;;2.60;;
3101;SDS011;1561;42.666;23.392;2024-03-23T15:07:36;2.28;;;2.17;;
3101;SDS011;1561;42.666;23.392;2024-03-23T15:10:10;2.70;;;2.50;;
3101;SDS011;1561;42.666;23.392;2024-03-23T15:12:38;3.22;;;2.92;;
3101;SDS011;1561;42.666;23.392;2024-03-23T15:15:10;3.10;;;2.80;;
3101;SDS011;1561;42.666;23.392;2024-03-23T15:17:40;3.38;;;3.13;;
3101;SDS011;1561;42.666;23.392;2024-03-23T15:20:13;3.67;;;3.38;;
3101;SDS011;1561;42.666;23.392;2024-03-23T15:22:40;4.70;;;4.25;;
3101;SDS011;1561;42.666;23.392;2024-03-23T15:25:16;2.70;;;2.50;;
3101;SDS011;1561;42.666;23.392;2024-03-23T15:27:45;8.10;;;3.92;;
3101;SDS011;1561;42.666;23.392;2024-03-23T15:30:17;2.67;;;2.50;;
3101;SDS011;1561;42.666;23.392;2024-03-23T15:32:46;2.17;;;2.08;;
3101;SDS011;1561;42.666;23.392;2024-03-23T15:35:14;2.78;;;2.58;;
3101;SDS011;1561;42.666;23.392;2024-03-23T15:37:50;3.78;;;3.45;;
3101;SDS011;1561;42.666;23.392;2024-03-23T15:40:26;4.38;;;3.28;;
3101;SDS011;1561;42.666;23.392;2024-03-23T15:42:58;2.95;;;2.75;;
3101;SDS011;1561;42.666;23.392;2024-03-23T15:45:33;5.43;;;3.08;;
3101;SDS011;1561;42.666;23.392;2024-03-23T15:48:00;3.17;;;2.60;;
3101;SDS011;1561;42.666;23.392;2024-03-23T15:50:32;6.07;;;3.40;;
3101;SDS011;1561;42.666;23.392;2024-03-23T15:52:58;2.30;;;2.20;;
3101;SDS011;1561;42.666;23.392;2024-03-23T15:55:37;2.28;;;2.08;;
3101;SDS011;1561;42.666;23.392;2024-03-23T15:58:05;3.47;;;3.00;;
3101;SDS011;1561;42.666;23.392;2024-03-23T16:00:32;3.38;;;3.10;;
3101;SDS011;1561;42.666;23.392;2024-03-23T16:03:04;3.00;;;2.80;;
3101;SDS011;1561;42.666;23.392;2024-03-23T16:05:53;2.80;;;2.60;;
3101;SDS011;1561;42.666;23.392;2024-03-23T16:08:23;2.83;;;2.53;;
3101;SDS011;1561;42.666;23.392;2024-03-23T16:11:02;4.00;;;3.37;;
3101;SDS011;1561;42.666;23.392;2024-03-23T16:13:29;3.33;;;3.10;;
3101;SDS011;1561;42.666;23.392;2024-03-23T16:15:56;6.03;;;5.43;;
3101;SDS011;1561;42.666;23.392;2024-03-23T16:18:24;3.40;;;3.15;;
3101;SDS011;1561;42.666;23.392;2024-03-23T16:20:57;8.33;;;3.73;;
3101;SDS011;1561;42.666;23.392;2024-03-23T16:23:25;5.63;;;4.03;;
3101;SDS011;1561;42.666;23.392;2024-03-23T16:29:03;5.10;;;4.60;;
3101;SDS011;1561;42.666;23.392;2024-03-23T16:31:45;4.93;;;4.43;;